| time (UTC) | temp F | wind direction | speed knots | gust knots | rain 1hr in | rain 24hr in | rain mn in | humidity % | barometer mb |
| 20260508131303 | 51 | 293 | 1.7 | 3.5 | 0.00 | 0.00 | 0.00 | 62 | 1015.2 |
| 20260508130803 | 51 | 338 | 1.7 | 1.7 | 0.00 | 0.00 | 0.00 | 61 | 1015.2 |
| 20260508130303 | 51 | 315 | 4.3 | 4.3 | 0.00 | 0.00 | 0.00 | 62 | 1015.2 |
| 20260508125803 | 50 | 225 | 1.7 | 1.7 | 0.00 | 0.00 | 0.00 | 63 | 1014.9 |
| 20260508125305 | 51 | 270 | 1.7 | 1.7 | 0.00 | 0.00 | 0.00 | 64 | 1014.9 |
| 20260508124803 | 50 | 248 | 0.0 | 0.9 | 0.00 | 0.00 | 0.00 | 63 | 1014.9 |
| 20260508124303 | 50 | 180 | 0.0 | 0.0 | 0.00 | 0.00 | 0.00 | 64 | 1014.9 |
| 20260508123803 | 50 | 270 | 4.3 | 4.3 | 0.00 | 0.00 | 0.00 | 64 | 1014.9 |
| 20260508123303 | 49 | 225 | 0.0 | 0.0 | 0.00 | 0.00 | 0.00 | 66 | 1014.9 |
| 20260508122803 | 49 | 270 | 0.0 | 0.9 | 0.00 | 0.00 | 0.00 | 66 | 1014.9 |
| 20260508122306 | 48 | 203 | 0.0 | 0.0 | 0.00 | 0.00 | 0.00 | 66 | 1015.2 |
| 20260508121803 | 48 | 270 | 2.6 | 2.6 | 0.00 | 0.00 | 0.00 | 67 | 1015.2 |
| 20260508121303 | 48 | 23 | 1.7 | 1.7 | 0.00 | 0.00 | 0.00 | 68 | 1014.9 |
| 20260508120803 | 47 | 203 | 1.7 | 3.5 | 0.00 | 0.00 | 0.00 | 68 | 1014.9 |
| 20260508120303 | 47 | 203 | 1.7 | 1.7 | 0.00 | 0.00 | 0.00 | 69 | 1014.9 |
| 20260508115803 | 46 | 135 | 1.7 | 1.7 | 0.00 | 0.00 | 0.00 | 70 | 1014.9 |
| 20260508115306 | 46 | 135 | 2.6 | 3.5 | 0.00 | 0.00 | 0.00 | 72 | 1014.9 |
| 20260508114803 | 45 | 203 | 1.7 | 1.7 | 0.00 | 0.00 | 0.00 | 72 | 1014.9 |
| 20260508114303 | 45 | 180 | 1.7 | 1.7 | 0.00 | 0.00 | 0.00 | 73 | 1014.9 |
| 20260508113803 | 44 | 180 | 0.0 | 0.0 | 0.00 | 0.00 | 0.00 | 76 | 1014.9 |
| 20260508113303 | 44 | 248 | 1.7 | 1.7 | 0.00 | 0.00 | 0.00 | 74 | 1014.9 |
| 20260508112803 | 44 | 0 | 0.9 | 1.7 | 0.00 | 0.00 | 0.00 | 75 | 1014.9 |
| 20260508112306 | 43 | 293 | 0.0 | 0.0 | 0.00 | 0.00 | 0.00 | 77 | 1014.5 |
| 20260508111803 | 43 | 158 | 0.0 | 0.0 | 0.00 | 0.00 | 0.00 | 79 | 1014.5 |
| 20260508111303 | 43 | 180 | 0.0 | 0.0 | 0.00 | 0.00 | 0.00 | 79 | 1014.5 |
| 20260508110803 | 43 | 225 | 0.0 | 0.0 | 0.00 | 0.00 | 0.00 | 79 | 1014.5 |
| 20260508110303 | 43 | 113 | 0.0 | 0.0 | 0.00 | 0.00 | 0.00 | 78 | 1014.5 |
| 20260508105306 | 42 | 135 | 0.0 | 0.0 | 0.00 | 0.00 | 0.00 | 80 | 1014.2 |
| 20260508104803 | 42 | 158 | 0.0 | 0.0 | 0.00 | 0.00 | 0.00 | 80 | 1014.2 |
| 20260508104303 | 42 | 158 | 0.0 | 0.0 | 0.00 | 0.00 | 0.00 | 80 | 1014.2 |
| 20260508103803 | 42 | 113 | 1.7 | 1.7 | 0.00 | 0.00 | 0.00 | 79 | 1014.2 |
| 20260508103303 | 42 | 135 | 0.0 | 0.0 | 0.00 | 0.00 | 0.00 | 79 | 1014.2 |
| 20260508102803 | 42 | 135 | 0.0 | 0.0 | 0.00 | 0.00 | 0.00 | 78 | 1014.2 |
| 20260508102306 | 42 | 135 | 0.0 | 0.0 | 0.00 | 0.00 | 0.00 | 78 | 1014.2 |
| 20260508101803 | 42 | 113 | 0.0 | 0.0 | 0.00 | 0.00 | 0.00 | 79 | 1014.2 |
| 20260508101303 | 42 | 158 | 0.0 | 0.0 | 0.00 | 0.00 | 0.00 | 79 | 1014.2 |
| 20260508100803 | 42 | 135 | 0.0 | 0.0 | 0.00 | 0.00 | 0.00 | 78 | 1014.2 |
| 20260508100303 | 42 | 113 | 0.0 | 0.0 | 0.00 | 0.00 | 0.00 | 77 | 1014.2 |
| 20260508095803 | 42 | 180 | 0.0 | 0.0 | 0.00 | 0.00 | 0.00 | 78 | 1014.2 |
| 20260508095306 | 42 | 135 | 0.0 | 0.0 | 0.00 | 0.00 | 0.00 | 79 | 1014.2 |
| 20260508094803 | 42 | 158 | 0.0 | 0.0 | 0.00 | 0.00 | 0.00 | 77 | 1014.2 |
| 20260508094303 | 42 | 180 | 0.0 | 0.0 | 0.00 | 0.00 | 0.00 | 77 | 1014.2 |
| 20260508093803 | 42 | 135 | 0.0 | 0.0 | 0.00 | 0.00 | 0.00 | 77 | 1014.2 |
| 20260508093303 | 42 | 113 | 0.0 | 0.0 | 0.00 | 0.00 | 0.00 | 77 | 1014.2 |
| 20260508092803 | 42 | 90 | 0.0 | 0.0 | 0.00 | 0.00 | 0.00 | 77 | 1014.2 |
| 20260508092312 | 42 | 135 | 0.0 | 0.0 | 0.00 | 0.00 | 0.00 | 77 | 1014.2 |
| 20260508091803 | 43 | 113 | 0.0 | 0.0 | 0.00 | 0.00 | 0.00 | 77 | 1014.2 |
| 20260508091303 | 43 | 135 | 0.0 | 0.0 | 0.00 | 0.00 | 0.00 | 76 | 1014.2 |
| 20260508090803 | 43 | 180 | 0.0 | 0.0 | 0.00 | 0.00 | 0.00 | 76 | 1014.2 |
| 20260508090303 | 43 | 180 | 0.0 | 0.0 | 0.00 | 0.00 | 0.00 | 76 | 1014.2 |
| 20260508085803 | 43 | 158 | 0.0 | 0.0 | 0.00 | 0.00 | 0.00 | 77 | 1014.2 |
| 20260508085306 | 43 | 113 | 0.0 | 0.0 | 0.00 | 0.00 | 0.00 | 76 | 1014.2 |
| 20260508084803 | 43 | 180 | 0.0 | 0.0 | 0.00 | 0.00 | 0.00 | 79 | 1014.2 |
| 20260508084303 | 43 | 113 | 0.0 | 0.0 | 0.00 | 0.00 | 0.00 | 76 | 1014.2 |
| 20260508083803 | 44 | 135 | 0.0 | 0.0 | 0.00 | 0.00 | 0.00 | 75 | 1014.2 |
| 20260508083303 | 44 | 113 | 0.0 | 0.0 | 0.00 | 0.00 | 0.00 | 77 | 1014.2 |
| 20260508082803 | 44 | 135 | 0.0 | 0.0 | 0.00 | 0.00 | 0.00 | 75 | 1014.2 |
| 20260508082306 | 44 | 180 | 0.0 | 0.0 | 0.00 | 0.00 | 0.00 | 74 | 1014.2 |
| 20260508081803 | 44 | 180 | 0.0 | 0.0 | 0.00 | 0.00 | 0.00 | 79 | 1014.2 |
| 20260508081303 | 45 | 113 | 0.0 | 0.0 | 0.00 | 0.00 | 0.00 | 75 | 1014.2 |
| 20260508080803 | 45 | 180 | 0.0 | 0.0 | 0.00 | 0.00 | 0.00 | 72 | 1014.2 |
| 20260508080303 | 45 | 180 | 0.0 | 0.0 | 0.00 | 0.00 | 0.00 | 72 | 1014.2 |
| 20260508075803 | 46 | 180 | 0.0 | 0.0 | 0.00 | 0.00 | 0.00 | 72 | 1014.2 |
| 20260508075308 | 46 | 135 | 0.0 | 0.0 | 0.00 | 0.00 | 0.00 | 73 | 1014.2 |
| 20260508074803 | 46 | 135 | 0.0 | 0.0 | 0.00 | 0.00 | 0.00 | 72 | 1014.2 |
| 20260508074303 | 46 | 135 | 0.0 | 0.0 | 0.00 | 0.00 | 0.00 | 70 | 1014.2 |
| 20260508073804 | 47 | 158 | 0.0 | 0.0 | 0.00 | 0.00 | 0.00 | 71 | 1014.2 |
| 20260508073303 | 47 | 158 | 0.0 | 0.0 | 0.00 | 0.00 | 0.00 | 75 | 1014.2 |
| 20260508072803 | 47 | 158 | 0.0 | 0.0 | 0.00 | 0.00 | 0.00 | 71 | 1014.2 |
| 20260508072307 | 47 | 180 | 0.0 | 0.0 | 0.00 | 0.00 | 0.00 | 75 | 1014.9 |
| 20260508071803 | 47 | 180 | 0.0 | 0.0 | 0.00 | 0.00 | 0.00 | 72 | 1014.9 |
| 20260508071303 | 47 | 45 | 0.0 | 0.0 | 0.00 | 0.00 | 0.00 | 69 | 1014.9 |
| 20260508070803 | 47 | 225 | 0.0 | 0.0 | 0.00 | 0.00 | 0.00 | 70 | 1014.9 |
| 20260508070303 | 47 | 203 | 0.0 | 0.0 | 0.00 | 0.00 | 0.00 | 71 | 1014.9 |
| 20260508065803 | 47 | 203 | 0.0 | 0.0 | 0.00 | 0.00 | 0.00 | 66 | 1014.9 |
| 20260508065306 | 47 | 203 | 0.0 | 0.0 | 0.00 | 0.00 | 0.00 | 68 | 1014.9 |
| 20260508064803 | 47 | 225 | 0.0 | 0.0 | 0.00 | 0.00 | 0.00 | 67 | 1015.2 |
| 20260508064303 | 47 | 270 | 1.7 | 1.7 | 0.00 | 0.00 | 0.00 | 65 | 1015.2 |
| 20260508063801 | 47 | 293 | 0.9 | 1.7 | 0.00 | 0.00 | 0.00 | 65 | 1015.2 |
| 20260508063301 | 47 | 338 | 2.6 | 2.6 | 0.00 | 0.00 | 0.00 | 65 | 1015.2 |
| 20260508062801 | 47 | 293 | 0.0 | 0.9 | 0.00 | 0.00 | 0.00 | 65 | 1015.2 |
| 20260508062301 | 47 | 0 | 0.9 | 0.9 | 0.00 | 0.00 | 0.00 | 63 | 1014.9 |
| 20260508061801 | 47 | 315 | 1.7 | 1.7 | 0.00 | 0.00 | 0.00 | 64 | 1014.9 |
| 20260508061301 | 47 | 270 | 1.7 | 3.5 | 0.00 | 0.00 | 0.00 | 65 | 1014.5 |
| 20260508060801 | 47 | 270 | 0.0 | 0.0 | 0.00 | 0.00 | 0.00 | 65 | 1014.5 |
| 20260508060301 | 47 | 270 | 0.0 | 0.0 | 0.00 | 0.00 | 0.00 | 66 | 1014.5 |
| 20260508055801 | 47 | 158 | 0.0 | 0.0 | 0.00 | 0.00 | 0.00 | 66 | 1014.5 |
| 20260508055305 | 47 | 135 | 0.0 | 0.0 | 0.00 | 0.00 | 0.00 | 66 | 1014.5 |
| 20260508054801 | 47 | 90 | 0.0 | 0.0 | 0.00 | 0.00 | 0.00 | 66 | 1014.5 |
| 20260508054302 | 47 | 23 | 0.0 | 0.0 | 0.00 | 0.00 | 0.00 | 68 | 1014.5 |
| 20260508053801 | 47 | 113 | 0.0 | 0.0 | 0.00 | 0.00 | 0.00 | 67 | 1014.5 |
| 20260508053301 | 47 | 113 | 0.0 | 0.0 | 0.00 | 0.00 | 0.00 | 67 | 1014.5 |
| 20260508052801 | 46 | 135 | 0.0 | 0.0 | 0.00 | 0.00 | 0.00 | 66 | 1014.5 |
| 20260508052301 | 47 | 113 | 0.0 | 0.0 | 0.00 | 0.00 | 0.00 | 67 | 1014.9 |
| 20260508051801 | 47 | 135 | 0.0 | 0.0 | 0.00 | 0.00 | 0.00 | 64 | 1014.9 |
| 20260508051301 | 47 | 158 | 0.0 | 0.0 | 0.00 | 0.00 | 0.00 | 65 | 1014.9 |
| 20260508050801 | 47 | 113 | 0.0 | 0.0 | 0.00 | 0.00 | 0.00 | 65 | 1014.9 |
| 20260508050301 | 47 | 135 | 0.0 | 0.0 | 0.00 | 0.00 | 0.00 | 64 | 1014.9 |
| 20260508045801 | 47 | 135 | 0.0 | 0.0 | 0.00 | 0.00 | 0.00 | 64 | 1015.2 |
| 20260508045301 | 47 | 90 | 0.0 | 0.0 | 0.00 | 0.00 | 0.00 | 65 | 1015.2 |
| 20260508044801 | 47 | 135 | 0.0 | 0.0 | 0.00 | 0.00 | 0.00 | 67 | 1014.9 |
| 20260508044301 | 46 | 158 | 0.0 | 0.0 | 0.00 | 0.00 | 0.00 | 68 | 1014.9 |
| 20260508043801 | 46 | 135 | 0.0 | 0.0 | 0.00 | 0.00 | 0.00 | 66 | 1014.9 |
| 20260508043301 | 46 | 203 | 0.0 | 0.0 | 0.00 | 0.00 | 0.00 | 66 | 1014.9 |
| 20260508042801 | 46 | 158 | 0.0 | 0.0 | 0.00 | 0.00 | 0.00 | 68 | 1014.9 |
| 20260508042311 | 46 | 180 | 0.0 | 0.0 | 0.00 | 0.00 | 0.00 | 66 | 1014.9 |
| 20260508041801 | 46 | 158 | 0.0 | 0.0 | 0.00 | 0.00 | 0.00 | 67 | 1014.9 |
| 20260508041301 | 46 | 68 | 0.0 | 0.0 | 0.00 | 0.00 | 0.00 | 70 | 1014.9 |
| 20260508040801 | 46 | 135 | 0.0 | 0.0 | 0.00 | 0.00 | 0.00 | 67 | 1014.9 |
| 20260508040300 | 46 | 225 | 0.0 | 0.0 | 0.00 | 0.00 | 0.00 | 66 | 1014.9 |
| 20260508035801 | 46 | 113 | 0.0 | 0.0 | 0.00 | 0.00 | 0.00 | 65 | 1014.9 |
| 20260508035301 | 46 | 23 | 0.0 | 0.0 | 0.00 | 0.00 | 0.00 | 67 | 1014.9 |
| 20260508034801 | 46 | 135 | 0.0 | 0.0 | 0.00 | 0.00 | 0.00 | 72 | 1014.9 |
| 20260508034301 | 45 | 225 | 0.0 | 0.0 | 0.00 | 0.00 | 0.00 | 69 | 1014.9 |
| 20260508033801 | 45 | 225 | 0.0 | 0.0 | 0.00 | 0.00 | 0.00 | 68 | 1014.9 |
| 20260508033301 | 45 | 270 | 0.0 | 0.0 | 0.00 | 0.00 | 0.00 | 70 | 1014.5 |
| 20260508032801 | 45 | 203 | 0.0 | 0.0 | 0.00 | 0.00 | 0.00 | 78 | 1014.5 |
| 20260508032305 | 45 | 180 | 0.0 | 0.0 | 0.00 | 0.00 | 0.00 | 73 | 1014.9 |
| 20260508031801 | 45 | 158 | 0.0 | 0.0 | 0.00 | 0.00 | 0.00 | 67 | 1014.9 |
| 20260508031301 | 45 | 203 | 0.0 | 0.0 | 0.00 | 0.00 | 0.00 | 66 | 1014.9 |
| 20260508030801 | 45 | 113 | 0.0 | 0.0 | 0.00 | 0.00 | 0.00 | 69 | 1014.9 |
| 20260508030301 | 46 | 180 | 0.0 | 0.0 | 0.00 | 0.00 | 0.00 | 75 | 1014.9 |
| 20260508025801 | 46 | 203 | 0.0 | 0.0 | 0.00 | 0.00 | 0.00 | 75 | 1014.9 |
| 20260508025305 | 46 | 203 | 0.0 | 0.0 | 0.00 | 0.00 | 0.00 | 68 | 1014.9 |
| 20260508024801 | 46 | 203 | 0.0 | 0.0 | 0.00 | 0.00 | 0.00 | 66 | 1014.9 |
| 20260508024301 | 46 | 180 | 0.0 | 0.0 | 0.00 | 0.00 | 0.00 | 70 | 1014.9 |
| 20260508023801 | 46 | 158 | 0.0 | 0.0 | 0.00 | 0.00 | 0.00 | 67 | 1014.9 |
| 20260508023301 | 46 | 113 | 0.0 | 0.0 | 0.00 | 0.00 | 0.00 | 65 | 1014.9 |
| 20260508022801 | 46 | 113 | 0.0 | 0.0 | 0.00 | 0.00 | 0.00 | 67 | 1014.9 |
| 20260508022301 | 46 | 203 | 0.0 | 0.0 | 0.00 | 0.00 | 0.00 | 64 | 1014.9 |
| 20260508021802 | 46 | 180 | 0.0 | 0.0 | 0.00 | 0.00 | 0.00 | 71 | 1014.9 |
| 20260508021301 | 46 | 180 | 0.0 | 0.0 | 0.00 | 0.00 | 0.00 | 71 | 1014.9 |
| 20260508020801 | 46 | 270 | 0.0 | 0.0 | 0.00 | 0.00 | 0.00 | 63 | 1014.9 |
| 20260508020301 | 47 | 203 | 0.0 | 0.0 | 0.00 | 0.00 | 0.00 | 65 | 1014.9 |
| 20260508015801 | 47 | 113 | 0.0 | 0.0 | 0.00 | 0.00 | 0.00 | 65 | 1014.9 |
| 20260508015305 | 47 | 203 | 0.0 | 0.0 | 0.00 | 0.00 | 0.00 | 62 | 1014.9 |
| 20260508014801 | 47 | 225 | 0.0 | 0.0 | 0.00 | 0.00 | 0.00 | 61 | 1014.9 |
| 20260508014301 | 47 | 203 | 0.0 | 0.0 | 0.00 | 0.00 | 0.00 | 67 | 1014.9 |
| 20260508013801 | 47 | 225 | 0.0 | 0.0 | 0.00 | 0.00 | 0.00 | 60 | 1014.9 |
| 20260508013301 | 48 | 225 | 0.0 | 0.0 | 0.00 | 0.00 | 0.00 | 62 | 1014.5 |
| 20260508012801 | 48 | 225 | 0.0 | 0.0 | 0.00 | 0.00 | 0.00 | 62 | 1014.5 |
| 20260508012306 | 48 | 225 | 0.0 | 0.0 | 0.00 | 0.00 | 0.00 | 63 | 1014.5 |
| 20260508011802 | 48 | 180 | 0.0 | 0.0 | 0.00 | 0.00 | 0.00 | 67 | 1014.5 |
| 20260508011301 | 48 | 225 | 0.0 | 0.0 | 0.00 | 0.00 | 0.00 | 61 | 1014.2 |
| 20260508010801 | 48 | 225 | 0.0 | 0.0 | 0.00 | 0.00 | 0.00 | 60 | 1014.2 |
| 20260508010301 | 48 | 203 | 0.0 | 0.0 | 0.00 | 0.00 | 0.00 | 64 | 1014.2 |
| 20260508005801 | 49 | 203 | 0.0 | 0.0 | 0.00 | 0.00 | 0.00 | 62 | 1014.2 |
| 20260508005305 | 49 | 203 | 0.0 | 0.0 | 0.00 | 0.00 | 0.00 | 62 | 1014.2 |
| 20260508004802 | 50 | 225 | 0.0 | 0.0 | 0.00 | 0.00 | 0.00 | 63 | 1014.2 |
| 20260508004302 | 50 | 203 | 0.0 | 0.0 | 0.00 | 0.00 | 0.00 | 59 | 1014.2 |
| 20260508003802 | 50 | 225 | 0.0 | 0.0 | 0.00 | 0.00 | 0.00 | 59 | 1014.2 |
| 20260508003302 | 51 | 203 | 0.0 | 0.0 | 0.00 | 0.00 | 0.00 | 57 | 1014.2 |
| 20260508002802 | 51 | 180 | 0.0 | 0.0 | 0.00 | 0.00 | 0.00 | 55 | 1014.2 |
| 20260508002301 | 52 | 135 | 0.0 | 0.0 | 0.00 | 0.00 | 0.00 | 56 | 1014.2 |
| 20260508001802 | 53 | 180 | 0.0 | 0.0 | 0.00 | 0.00 | 0.00 | 55 | 1014.2 |
| 20260508001302 | 53 | 180 | 0.0 | 0.0 | 0.00 | 0.00 | 0.00 | 52 | 1014.2 |
| 20260508000802 | 53 | 270 | 0.0 | 0.0 | 0.00 | 0.00 | 0.00 | 49 | 1014.2 |
| 20260508000301 | 54 | 315 | 0.0 | 0.0 | 0.00 | 0.00 | 0.00 | 46 | 1014.2 |
| 20260507235801 | 54 | 270 | 0.9 | 1.7 | 0.00 | 0.00 | 0.00 | 44 | 1013.8 |
| 20260507235305 | 54 | 180 | 1.7 | 1.7 | 0.00 | 0.00 | 0.00 | 43 | 1013.8 |
| 20260507234802 | 55 | 315 | 3.5 | 3.5 | 0.00 | 0.00 | 0.00 | 45 | 1014.2 |
| 20260507234302 | 55 | 315 | 2.6 | 2.6 | 0.00 | 0.00 | 0.00 | 43 | 1014.2 |
| 20260507233802 | 55 | 338 | 1.7 | 2.6 | 0.00 | 0.00 | 0.00 | 43 | 1014.2 |
| 20260507233301 | 55 | 270 | 1.7 | 1.7 | 0.00 | 0.00 | 0.00 | 44 | 1013.8 |
| 20260507232801 | 55 | 248 | 1.7 | 2.6 | 0.00 | 0.00 | 0.00 | 43 | 1013.8 |
| 20260507232305 | 56 | 293 | 4.3 | 4.3 | 0.00 | 0.00 | 0.00 | 41 | 1013.8 |
| 20260507231801 | 56 | 315 | 1.7 | 3.5 | 0.00 | 0.00 | 0.00 | 42 | 1013.8 |
| 20260507231302 | 56 | 270 | 1.7 | 3.5 | 0.00 | 0.00 | 0.00 | 41 | 1013.8 |
| 20260507230801 | 56 | 315 | 3.5 | 3.5 | 0.00 | 0.00 | 0.00 | 41 | 1013.8 |
| 20260507230301 | 56 | 293 | 1.7 | 3.5 | 0.00 | 0.00 | 0.00 | 41 | 1013.8 |
| 20260507225801 | 56 | 293 | 1.7 | 2.6 | 0.00 | 0.00 | 0.00 | 41 | 1013.8 |
| 20260507225305 | 58 | 225 | 4.3 | 4.3 | 0.00 | 0.00 | 0.00 | 39 | 1013.8 |
| 20260507224802 | 58 | 338 | 3.5 | 3.5 | 0.00 | 0.00 | 0.00 | 39 | 1014.2 |
| 20260507224302 | 58 | 293 | 1.7 | 4.3 | 0.00 | 0.00 | 0.00 | 40 | 1014.2 |
| 20260507223802 | 58 | 315 | 2.6 | 4.3 | 0.00 | 0.00 | 0.00 | 39 | 1014.2 |
| 20260507223301 | 58 | 293 | 2.6 | 5.2 | 0.00 | 0.00 | 0.00 | 40 | 1014.2 |
| 20260507222801 | 58 | 315 | 4.3 | 4.3 | 0.00 | 0.00 | 0.00 | 40 | 1014.2 |
| 20260507222305 | 56 | 0 | 2.6 | 2.6 | 0.00 | 0.00 | 0.00 | 42 | 1014.2 |
| 20260507221802 | 57 | 338 | 3.5 | 5.2 | 0.00 | 0.00 | 0.00 | 40 | 1014.2 |
| 20260507221302 | 59 | 0 | 3.5 | 6.1 | 0.00 | 0.00 | 0.00 | 39 | 1014.2 |
| 20260507220802 | 59 | 338 | 3.5 | 6.1 | 0.00 | 0.00 | 0.00 | 38 | 1014.2 |
| 20260507220302 | 60 | 45 | 3.5 | 3.5 | 0.00 | 0.00 | 0.00 | 38 | 1014.2 |
| 20260507215801 | 59 | 338 | 3.5 | 5.2 | 0.00 | 0.00 | 0.00 | 36 | 1013.8 |
| 20260507215302 | 59 | 0 | 4.3 | 4.3 | 0.00 | 0.00 | 0.00 | 40 | 1013.8 |
| 20260507214802 | 60 | 270 | 3.5 | 4.3 | 0.00 | 0.00 | 0.00 | 36 | 1013.8 |
| 20260507214302 | 59 | 225 | 3.5 | 3.5 | 0.00 | 0.00 | 0.00 | 39 | 1013.8 |
| 20260507213802 | 60 | 0 | 3.5 | 3.5 | 0.00 | 0.00 | 0.00 | 39 | 1013.8 |
| 20260507213302 | 58 | 315 | 3.5 | 3.5 | 0.00 | 0.00 | 0.00 | 43 | 1013.5 |
| 20260507212301 | 60 | 293 | 4.3 | 5.2 | 0.00 | 0.00 | 0.00 | 40 | 1013.8 |
| 20260507211804 | 59 | 293 | 4.3 | 4.3 | 0.00 | 0.00 | 0.00 | 42 | 1013.8 |
| 20260507211301 | 58 | 315 | 5.2 | 5.2 | 0.00 | 0.00 | 0.00 | 41 | 1013.5 |
| 20260507210802 | 59 | 68 | 1.7 | 1.7 | 0.00 | 0.00 | 0.00 | 44 | 1013.5 |
| 20260507210302 | 61 | 315 | 5.2 | 6.1 | 0.00 | 0.00 | 0.00 | 39 | 1013.5 |
| 20260507205802 | 61 | 158 | 3.5 | 3.5 | 0.00 | 0.00 | 0.00 | 39 | 1013.5 |
| 20260507205302 | 60 | 293 | 3.5 | 3.5 | 0.00 | 0.00 | 0.00 | 39 | 1013.5 |
| 20260507204802 | 60 | 315 | 4.3 | 4.3 | 0.00 | 0.00 | 0.00 | 38 | 1013.2 |
| 20260507204302 | 60 | 270 | 4.3 | 5.2 | 0.00 | 0.00 | 0.00 | 39 | 1013.2 |
| 20260507203802 | 60 | 270 | 3.5 | 4.3 | 0.00 | 0.00 | 0.00 | 38 | 1013.2 |
| 20260507203302 | 60 | 293 | 4.3 | 5.2 | 0.00 | 0.00 | 0.00 | 39 | 1013.2 |
| 20260507202802 | 60 | 315 | 3.5 | 3.5 | 0.00 | 0.00 | 0.00 | 40 | 1013.2 |
| 20260507202306 | 60 | 23 | 5.2 | 5.2 | 0.00 | 0.00 | 0.00 | 38 | 1013.5 |
| 20260507201802 | 61 | 293 | 3.5 | 4.3 | 0.00 | 0.00 | 0.00 | 43 | 1013.5 |
| 20260507201302 | 61 | 0 | 1.7 | 4.3 | 0.00 | 0.00 | 0.00 | 42 | 1013.2 |
| 20260507200802 | 60 | 315 | 3.5 | 3.5 | 0.00 | 0.00 | 0.00 | 41 | 1013.2 |
| 20260507200302 | 60 | 293 | 4.3 | 4.3 | 0.00 | 0.00 | 0.00 | 40 | 1013.2 |
| 20260507195802 | 60 | 293 | 2.6 | 3.5 | 0.00 | 0.00 | 0.00 | 43 | 1013.5 |
| 20260507195305 | 60 | 180 | 1.7 | 5.2 | 0.00 | 0.00 | 0.00 | 44 | 1013.5 |
| 20260507194802 | 60 | 293 | 3.5 | 3.5 | 0.00 | 0.00 | 0.00 | 43 | 1013.5 |
| 20260507194302 | 59 | 203 | 1.7 | 4.3 | 0.00 | 0.00 | 0.00 | 44 | 1013.5 |
| 20260507193802 | 60 | 315 | 4.3 | 4.3 | 0.00 | 0.00 | 0.00 | 42 | 1013.5 |
| 20260507193302 | 60 | 0 | 4.3 | 4.3 | 0.00 | 0.00 | 0.00 | 43 | 1013.5 |
| 20260507192802 | 60 | 293 | 5.2 | 5.2 | 0.00 | 0.00 | 0.00 | 46 | 1013.5 |
| 20260507192305 | 61 | 270 | 3.5 | 4.3 | 0.00 | 0.00 | 0.00 | 42 | 1013.8 |
| 20260507191802 | 61 | 270 | 4.3 | 7.0 | 0.00 | 0.00 | 0.00 | 39 | 1013.8 |
| 20260507191302 | 61 | 293 | 4.3 | 4.3 | 0.00 | 0.00 | 0.00 | 42 | 1013.5 |
| 20260507190802 | 59 | 338 | 3.5 | 6.1 | 0.00 | 0.00 | 0.00 | 43 | 1013.5 |
| 20260507190302 | 59 | 315 | 3.5 | 3.5 | 0.00 | 0.00 | 0.00 | 43 | 1013.5 |
| 20260507185802 | 61 | 293 | 2.6 | 5.2 | 0.00 | 0.00 | 0.00 | 40 | 1013.5 |
| 20260507185305 | 59 | 0 | 3.5 | 7.0 | 0.00 | 0.00 | 0.00 | 41 | 1013.5 |
| 20260507184802 | 60 | 293 | 4.3 | 4.3 | 0.00 | 0.00 | 0.00 | 43 | 1013.8 |
| 20260507184302 | 60 | 203 | 1.7 | 1.7 | 0.00 | 0.00 | 0.00 | 40 | 1013.8 |
| 20260507183802 | 60 | 270 | 6.1 | 6.1 | 0.00 | 0.00 | 0.00 | 40 | 1013.8 |
| 20260507183302 | 59 | 270 | 1.7 | 1.7 | 0.00 | 0.00 | 0.00 | 42 | 1013.5 |
| 20260507182802 | 59 | 270 | 2.6 | 2.6 | 0.00 | 0.00 | 0.00 | 41 | 1013.5 |
| 20260507182306 | 58 | 270 | 1.7 | 1.7 | 0.00 | 0.00 | 0.00 | 41 | 1013.5 |
| 20260507181802 | 59 | 293 | 3.5 | 3.5 | 0.00 | 0.00 | 0.00 | 41 | 1013.5 |
| 20260507181302 | 59 | 0 | 1.7 | 5.2 | 0.00 | 0.00 | 0.00 | 41 | 1013.5 |
| 20260507180802 | 59 | 293 | 3.5 | 6.1 | 0.00 | 0.00 | 0.00 | 41 | 1013.5 |
| 20260507180302 | 58 | 338 | 2.6 | 3.5 | 0.00 | 0.00 | 0.00 | 44 | 1013.5 |
| 20260507175802 | 58 | 0 | 3.5 | 5.2 | 0.00 | 0.00 | 0.00 | 41 | 1013.8 |
| 20260507175306 | 58 | 293 | 1.7 | 1.7 | 0.00 | 0.00 | 0.00 | 43 | 1013.8 |
| 20260507174807 | 58 | 338 | 6.1 | 6.1 | 0.00 | 0.00 | 0.00 | 42 | 1014.2 |
| 20260507174302 | 56 | 203 | 5.2 | 5.2 | 0.00 | 0.00 | 0.00 | 43 | 1014.2 |
| 20260507173802 | 57 | 270 | 3.5 | 4.3 | 0.00 | 0.00 | 0.00 | 43 | 1014.2 |
| 20260507173302 | 57 | 315 | 4.3 | 4.3 | 0.00 | 0.00 | 0.00 | 42 | 1014.2 |
| 20260507172802 | 56 | 68 | 3.5 | 3.5 | 0.00 | 0.00 | 0.00 | 41 | 1014.2 |
| 20260507172306 | 56 | 68 | 3.5 | 5.2 | 0.00 | 0.00 | 0.00 | 42 | 1014.2 |
| 20260507171802 | 56 | 23 | 1.7 | 3.5 | 0.00 | 0.00 | 0.00 | 40 | 1014.2 |
| 20260507171302 | 55 | 293 | 1.7 | 5.2 | 0.00 | 0.00 | 0.00 | 40 | 1014.5 |
| 20260507170802 | 55 | 270 | 4.3 | 4.3 | 0.00 | 0.00 | 0.00 | 43 | 1014.5 |
| 20260507170302 | 56 | 315 | 2.6 | 2.6 | 0.00 | 0.00 | 0.00 | 40 | 1014.5 |
| 20260507165802 | 55 | 293 | 1.7 | 3.5 | 0.00 | 0.00 | 0.00 | 43 | 1014.5 |
| 20260507165306 | 55 | 338 | 1.7 | 2.6 | 0.00 | 0.00 | 0.00 | 42 | 1014.5 |
| 20260507164802 | 55 | 270 | 4.3 | 5.2 | 0.00 | 0.00 | 0.00 | 43 | 1014.9 |
| 20260507164302 | 55 | 315 | 1.7 | 1.7 | 0.00 | 0.00 | 0.00 | 42 | 1014.9 |
| 20260507163802 | 55 | 338 | 6.1 | 6.1 | 0.00 | 0.00 | 0.00 | 41 | 1014.9 |
| 20260507163302 | 55 | 270 | 2.6 | 5.2 | 0.00 | 0.00 | 0.00 | 43 | 1014.5 |
| 20260507162802 | 55 | 338 | 1.7 | 4.3 | 0.00 | 0.00 | 0.00 | 44 | 1014.5 |
| 20260507162302 | 55 | 270 | 2.6 | 2.6 | 0.00 | 0.00 | 0.00 | 44 | 1014.5 |
| 20260507161802 | 56 | 315 | 2.6 | 3.5 | 0.00 | 0.00 | 0.00 | 46 | 1014.5 |
| 20260507161302 | 55 | 270 | 5.2 | 5.2 | 0.00 | 0.00 | 0.00 | 43 | 1014.2 |
| 20260507160802 | 56 | 0 | 1.7 | 4.3 | 0.00 | 0.00 | 0.00 | 44 | 1014.2 |
| 20260507160302 | 55 | 270 | 3.5 | 5.2 | 0.00 | 0.00 | 0.00 | 43 | 1014.2 |
| 20260507155802 | 56 | 270 | 3.5 | 4.3 | 0.00 | 0.00 | 0.00 | 45 | 1014.2 |
| 20260507155306 | 55 | 225 | 5.2 | 5.2 | 0.00 | 0.00 | 0.00 | 44 | 1014.2 |
| 20260507154802 | 55 | 0 | 1.7 | 4.3 | 0.00 | 0.00 | 0.00 | 43 | 1014.2 |
| 20260507154302 | 55 | 293 | 4.3 | 4.3 | 0.00 | 0.00 | 0.00 | 45 | 1014.2 |
| 20260507153802 | 55 | 113 | 3.5 | 3.5 | 0.00 | 0.00 | 0.00 | 44 | 1014.2 |
| 20260507153303 | 55 | 68 | 1.7 | 1.7 | 0.00 | 0.00 | 0.00 | 46 | 1014.2 |
| 20260507152802 | 55 | 203 | 4.3 | 4.3 | 0.00 | 0.00 | 0.00 | 44 | 1014.2 |
| 20260507152305 | 55 | 270 | 1.7 | 4.3 | 0.00 | 0.00 | 0.00 | 44 | 1014.2 |
| 20260507151802 | 55 | 225 | 1.7 | 4.3 | 0.00 | 0.00 | 0.00 | 47 | 1014.2 |
| 20260507151302 | 54 | 293 | 1.7 | 1.7 | 0.00 | 0.00 | 0.00 | 45 | 1014.2 |
| 20260507150802 | 54 | 180 | 3.5 | 5.2 | 0.00 | 0.00 | 0.00 | 46 | 1014.2 |
| 20260507150302 | 54 | 225 | 1.7 | 3.5 | 0.00 | 0.00 | 0.00 | 47 | 1014.2 |
| 20260507145802 | 54 | 270 | 1.7 | 1.7 | 0.00 | 0.00 | 0.00 | 48 | 1014.5 |
| 20260507145306 | 54 | 225 | 2.6 | 6.1 | 0.00 | 0.00 | 0.00 | 47 | 1014.5 |
| 20260507144804 | 53 | 225 | 1.7 | 1.7 | 0.00 | 0.00 | 0.00 | 51 | 1014.5 |
| 20260507144302 | 53 | 293 | 2.6 | 2.6 | 0.00 | 0.00 | 0.00 | 51 | 1014.5 |
| 20260507143802 | 52 | 270 | 1.7 | 1.7 | 0.00 | 0.00 | 0.00 | 51 | 1014.5 |
| 20260507143302 | 53 | 270 | 1.7 | 4.3 | 0.00 | 0.00 | 0.00 | 50 | 1014.5 |
| 20260507142803 | 52 | 338 | 3.5 | 4.3 | 0.00 | 0.00 | 0.00 | 52 | 1014.5 |
| 20260507142302 | 52 | 293 | 3.5 | 3.5 | 0.00 | 0.00 | 0.00 | 56 | 1014.5 |
| 20260507141802 | 51 | 270 | 1.7 | 3.5 | 0.00 | 0.00 | 0.00 | 55 | 1014.5 |
| 20260507141302 | 51 | 338 | 1.7 | 3.5 | 0.00 | 0.00 | 0.00 | 58 | 1014.9 |
| 20260507140802 | 51 | 293 | 1.7 | 2.6 | 0.00 | 0.00 | 0.00 | 57 | 1014.9 |
| 20260507140302 | 51 | 203 | 1.7 | 1.7 | 0.00 | 0.00 | 0.00 | 58 | 1014.9 |
| 20260507135802 | 50 | 270 | 3.5 | 3.5 | 0.00 | 0.00 | 0.00 | 59 | 1014.9 |
| 20260507135306 | 50 | 270 | 1.7 | 4.3 | 0.00 | 0.00 | 0.00 | 58 | 1014.9 |
| 20260507134802 | 50 | 315 | 1.7 | 2.6 | 0.00 | 0.00 | 0.00 | 59 | 1014.9 |
| 20260507134302 | 49 | 248 | 3.5 | 3.5 | 0.00 | 0.00 | 0.00 | 59 | 1014.9 |
| 20260507133802 | 49 | 293 | 1.7 | 1.7 | 0.00 | 0.00 | 0.00 | 61 | 1014.9 |
| 20260507133302 | 48 | 203 | 1.7 | 1.7 | 0.00 | 0.00 | 0.00 | 62 | 1014.9 |
| 20260507132802 | 48 | 338 | 1.7 | 1.7 | 0.00 | 0.00 | 0.00 | 64 | 1014.9 |
| 20260507132306 | 48 | 293 | 1.7 | 1.7 | 0.00 | 0.00 | 0.00 | 67 | 1015.2 |
| 20260507131802 | 47 | 270 | 2.6 | 2.6 | 0.00 | 0.00 | 0.00 | 67 | 1015.2 |